Time;durP1;ratioP1;P1;durP2;ratioP2;P2;SDS_P1;SDS_P2;PMS_P1;PMS_P2;Temp;Humidity;BMP_temperature;BMP_pressure;BME280_temperature;BME280_humidity;BME280_pressure;Samples;Min_cycle;Max_cycle;Signal;HPM_P1;HPM_P2
2022/01/25 00:09:05;;;;;;;;;;;-10.30;92.40;;;;;;4996244;28;19913;-79
2022/01/25 00:33:24;;;;;;;;;;;-10.00;92.50;;;;;;4996730;28;20247;-78
2022/01/25 00:35:49;;;;;;;;;;;-10.60;92.10;;;;;;4996577;28;20536;-79
2022/01/25 00:38:15;;;;;;;;;;;-10.50;92.10;;;;;;4996412;28;20043;-79
2022/01/25 00:40:41;;;;;;;;;;;-10.40;92.30;;;;;;4997448;28;19906;-78
2022/01/25 00:43:06;;;;;;;;;;;-10.50;92.20;;;;;;5000228;28;19909;-79
2022/01/25 00:45:35;;;;;;;;;;;-10.50;92.10;;;;;;5025906;28;19951;-78
2022/01/25 00:48:18;;;;;;;;;;;-12.30;91.20;;;;;;5082274;28;20386;-79
2022/01/25 00:50:44;;;;;;;;;;;-10.40;91.80;;;;;;5083542;28;20177;-79
2022/01/25 00:55:54;;;;;;;;;;;-10.60;91.30;;;;;;5082618;28;20402;-78
2022/01/25 00:58:19;;;;;;;;;;;-10.60;91.50;;;;;;5082545;28;19940;-79
2022/01/25 01:00:45;;;;;;;;;;;-10.60;91.50;;;;;;5082326;28;19965;-79
2022/01/25 01:03:11;;;;;;;;;;;-13.60;90.60;;;;;;5063490;28;19957;-78
2022/01/25 01:05:38;;;;;;;;;;;-10.80;91.30;;;;;;5081931;28;20188;-79
2022/01/25 01:08:04;;;;;;;;;;;-10.80;91.50;;;;;;5082756;28;19912;-78
2022/01/25 01:10:29;;;;;;;;;;;-10.90;91.80;;;;;;5064680;28;19904;-78
2022/01/25 01:15:38;;;;;;;;;;;-11.00;91.60;;;;;;5082879;28;20416;-81
2022/01/25 01:29:21;;;;;;;;;;;-11.20;92.00;;;;;;5026569;28;19928;-79
2022/01/25 01:42:19;;;;;;;;;;;-11.30;92.40;;;;;;5018758;28;20425;-79
2022/01/25 01:47:39;;;;;;;;;;;-11.40;92.30;;;;;;5018444;28;19913;-81
2022/01/25 01:50:12;;;;;;;;;;;-11.50;92.20;;;;;;5019019;28;19905;-83
2022/01/25 01:52:38;;;;;;;;;;;-11.50;92.40;;;;;;5018220;28;20152;-79
2022/01/25 01:55:05;;;;;;;;;;;-11.50;92.40;;;;;;5018218;28;20445;-79
2022/01/25 01:57:31;;;;;;;;;;;-11.40;92.40;;;;;;5017659;28;19917;-79
2022/01/25 01:59:56;;;;;;;;;;;-11.40;92.40;;;;;;5042917;28;19919;-79
2022/01/25 02:02:24;;;;;;;;;;;-11.40;91.90;;;;;;5080899;28;19958;-79
2022/01/25 02:04:50;;;;;;;;;;;-11.40;92.00;;;;;;5080871;28;19907;-79
2022/01/25 02:07:16;;;;;;;;;;;-11.50;91.80;;;;;;5062346;28;19912;-79
2022/01/25 02:09:41;;;;;;;;;;;-10.70;92.40;;;;;;5080625;28;19927;-79
2022/01/25 02:12:07;;;;;;;;;;;-11.50;92.10;;;;;;5080275;28;19904;-80
2022/01/25 02:14:35;;;;;;;;;;;-11.50;91.70;;;;;;5080525;28;20260;-79
2022/01/25 02:17:11;;;;;;;;;;;-11.40;91.60;;;;;;5080156;28;20122;-79
2022/01/25 02:22:27;;;;;;;;;;;-10.60;92.00;;;;;;5080555;28;20330;-79
2022/01/25 02:24:53;;;;;;;;;;;-11.70;91.80;;;;;;5080289;28;19908;-79
2022/01/25 02:27:19;;;;;;;;;;;-11.70;91.70;;;;;;5079971;28;20429;-79
2022/01/25 02:29:52;;;;;;;;;;;-11.00;91.90;;;;;;5062371;28;20147;-83
2022/01/25 02:32:18;;;;;;;;;;;-9.30;93.60;;;;;;5080281;28;19962;-79
2022/01/25 02:34:43;;;;;;;;;;;-12.00;91.80;;;;;;5079899;28;20363;-80
2022/01/25 02:37:10;;;;;;;;;;;-10.10;92.50;;;;;;5061627;28;20120;-80
2022/01/25 02:39:42;;;;;;;;;;;-12.00;92.00;;;;;;5061584;28;19904;-78
2022/01/25 02:42:17;;;;;;;;;;;-12.00;91.90;;;;;;5079826;28;19950;-80
2022/01/25 02:44:43;;;;;;;;;;;-12.10;92.00;;;;;;5061522;28;20015;-81
2022/01/25 02:49:55;;;;;;;;;;;-12.00;92.20;;;;;;5080183;28;20322;-79
2022/01/25 02:52:21;;;;;;;;;;;-12.00;92.20;;;;;;5061288;28;19904;-80
2022/01/25 02:54:46;;;;;;;;;;;-12.00;92.20;;;;;;5061310;28;19911;-79
2022/01/25 02:57:12;;;;;;;;;;;-12.00;92.40;;;;;;5079533;28;19915;-82
2022/01/25 02:59:38;;;;;;;;;;;-12.00;92.30;;;;;;5079498;28;20410;-79
2022/01/25 03:02:04;;;;;;;;;;;-12.00;92.30;;;;;;5061359;28;19949;-80
2022/01/25 03:04:30;;;;;;;;;;;-12.00;92.40;;;;;;5079109;28;19904;-80
2022/01/25 03:06:55;;;;;;;;;;;-12.00;92.20;;;;;;5079765;28;19904;-78
2022/01/25 03:09:21;;;;;;;;;;;-12.00;91.90;;;;;;5079948;28;19912;-79
2022/01/25 03:11:50;;;;;;;;;;;-12.10;92.10;;;;;;5079959;28;20331;-79
2022/01/25 03:14:18;;;;;;;;;;;-9.50;92.70;;;;;;5061813;28;19916;-79
2022/01/25 03:16:48;;;;;;;;;;;-12.70;92.00;;;;;;5061515;28;19908;-79
2022/01/25 03:22:03;;;;;;;;;;;-12.20;92.00;;;;;;5079609;28;19908;-80
2022/01/25 03:24:32;;;;;;;;;;;-11.30;92.60;;;;;;5079704;28;19907;-78
2022/01/25 03:26:57;;;;;;;;;;;-12.20;92.30;;;;;;5079349;28;20228;-79
2022/01/25 03:29:23;;;;;;;;;;;-12.30;92.30;;;;;;5079146;28;20394;-79
2022/01/25 03:31:49;;;;;;;;;;;-10.80;92.60;;;;;;5078880;28;20120;-81
2022/01/25 03:34:14;;;;;;;;;;;-11.30;92.50;;;;;;5079373;28;20403;-79
2022/01/25 03:36:41;;;;;;;;;;;-12.20;91.90;;;;;;5060812;28;20310;-79
2022/01/25 03:39:10;;;;;;;;;;;-12.10;91.80;;;;;;5088079;28;20374;-79
2022/01/25 03:41:36;;;;;;;;;;;-11.80;91.90;;;;;;5090884;28;20006;-80
2022/01/25 03:44:02;;;;;;;;;;;-12.20;92.00;;;;;;5082731;28;19939;-79
2022/01/25 03:47:18;;;;;;;;;;;-12.30;91.80;;;;;;5080990;28;20129;-81
2022/01/25 03:52:00;;;;;;;;;;;-11.40;92.10;;;;;;5080680;28;20146;-81
2022/01/25 03:54:26;;;;;;;;;;;-12.10;91.90;;;;;;5079411;28;20294;-82
2022/01/25 03:56:54;;;;;;;;;;;-12.20;91.70;;;;;;5079055;28;20442;-79
2022/01/25 03:59:20;;;;;;;;;;;-11.30;91.90;;;;;;5079396;28;20154;-80
2022/01/25 04:01:45;;;;;;;;;;;-12.30;91.80;;;;;;5061024;28;19908;-84
2022/01/25 04:04:15;;;;;;;;;;;-12.30;91.50;;;;;;5044112;28;20208;-79
2022/01/25 04:06:44;;;;;;;;;;;-12.50;91.70;;;;;;5060525;28;20207;-80
2022/01/25 04:09:10;;;;;;;;;;;-12.40;92.00;;;;;;5061792;28;20374;-80
2022/01/25 04:11:36;;;;;;;;;;;-13.70;91.80;;;;;;5061297;28;19915;-82
2022/01/25 04:14:02;;;;;;;;;;;-11.80;92.30;;;;;;5061220;28;20509;-82
2022/01/25 04:16:38;;;;;;;;;;;-12.60;91.70;;;;;;5064460;28;20205;-79
2022/01/25 04:26:47;;;;;;;;;;;-13.30;91.90;;;;;;5090827;28;19953;-79
2022/01/25 04:29:13;;;;;;;;;;;-12.50;92.20;;;;;;5089904;28;19927;-79
2022/01/25 04:31:38;;;;;;;;;;;-12.60;92.10;;;;;;5073755;28;20363;-79
2022/01/25 04:34:40;;;;;;;;;;;-12.60;92.40;;;;;;5086884;28;20360;-79
2022/01/25 04:53:35;;;;;;;;;;;-12.70;92.00;;;;;;5082506;28;19919;-79
2022/01/25 04:56:13;;;;;;;;;;;-12.70;91.90;;;;;;5083193;28;19904;-80
2022/01/25 04:58:51;;;;;;;;;;;-12.70;91.70;;;;;;5064817;28;20377;-81
2022/01/25 05:01:17;;;;;;;;;;;-12.80;91.70;;;;;;5084126;28;20166;-85
2022/01/25 05:04:01;;;;;;;;;;;-12.40;91.90;;;;;;5088127;28;19953;-78
2022/01/25 05:06:28;;;;;;;;;;;-12.80;91.80;;;;;;5070366;28;19904;-79
2022/01/25 05:09:03;;;;;;;;;;;-12.90;92.00;;;;;;5069055;28;19916;-78
2022/01/25 05:11:33;;;;;;;;;;;-12.70;92.20;;;;;;5065866;28;19953;-78
2022/01/25 05:24:26;;;;;;;;;;;-12.60;92.30;;;;;;5081717;28;19981;-78
2022/01/25 05:26:52;;;;;;;;;;;-13.00;92.20;;;;;;5080207;28;20386;-80
2022/01/25 05:29:17;;;;;;;;;;;-12.80;91.70;;;;;;5081133;28;20325;-79
2022/01/25 05:31:43;;;;;;;;;;;-12.70;91.90;;;;;;5063485;28;19907;-78
2022/01/25 05:37:03;;;;;;;;;;;-12.90;91.70;;;;;;5017168;28;19911;-78
2022/01/25 05:39:33;;;;;;;;;;;-13.40;91.80;;;;;;5017101;28;19916;-78
2022/01/25 05:47:27;;;;;;;;;;;-12.90;92.00;;;;;;5019487;28;19940;-78
2022/01/25 05:49:56;;;;;;;;;;;-13.00;91.50;;;;;;5024464;28;19947;-78
2022/01/25 05:52:22;;;;;;;;;;;-13.00;91.70;;;;;;5009492;28;19905;-78
2022/01/25 05:54:50;;;;;;;;;;;-13.40;91.70;;;;;;5027617;28;19916;-79
2022/01/25 05:57:16;;;;;;;;;;;-13.20;91.90;;;;;;5027722;28;19979;-79
2022/01/25 05:59:41;;;;;;;;;;;-11.50;92.80;;;;;;5013056;28;19909;-79
2022/01/25 06:02:07;;;;;;;;;;;-11.20;92.90;;;;;;5028845;28;20181;-79
2022/01/25 06:04:33;;;;;;;;;;;-13.10;92.40;;;;;;5027927;28;19958;-79
2022/01/25 06:07:02;;;;;;;;;;;-13.10;92.30;;;;;;5028440;28;20475;-78
2022/01/25 06:09:28;;;;;;;;;;;-11.40;92.70;;;;;;5023005;28;19913;-79
2022/01/25 06:11:54;;;;;;;;;;;-13.20;92.30;;;;;;5019669;28;19915;-78
2022/01/25 06:15:41;;;;;;;;;;;-13.20;91.90;;;;;;5059146;28;19913;-81
2022/01/25 06:18:07;;;;;;;;;;;-13.10;92.00;;;;;;5059607;28;20031;-80
2022/01/25 06:20:33;;;;;;;;;;;-13.10;92.10;;;;;;5059484;28;19920;-79
2022/01/25 06:22:59;;;;;;;;;;;-13.20;92.20;;;;;;5057815;28;19908;-80
2022/01/25 06:25:25;;;;;;;;;;;-13.10;92.20;;;;;;5057102;28;19916;-80
2022/01/25 06:27:50;;;;;;;;;;;-13.10;92.20;;;;;;5058074;28;19909;-80
2022/01/25 06:30:19;;;;;;;;;;;-13.00;92.20;;;;;;5058544;28;19935;-81
2022/01/25 06:32:45;;;;;;;;;;;-13.00;91.80;;;;;;5058788;28;19909;-80
2022/01/25 06:35:17;;;;;;;;;;;-13.00;91.50;;;;;;5058015;28;20035;-79
2022/01/25 06:37:45;;;;;;;;;;;-12.90;91.50;;;;;;5058175;28;19912;-78
2022/01/25 06:40:11;;;;;;;;;;;-12.90;91.70;;;;;;5056936;28;19913;-80
2022/01/25 06:42:38;;;;;;;;;;;-12.80;91.60;;;;;;5056436;28;19912;-80
2022/01/25 06:45:11;;;;;;;;;;;-12.90;91.40;;;;;;5055886;28;20586;-79
2022/01/25 06:47:37;;;;;;;;;;;-12.80;91.40;;;;;;5055925;28;19913;-79
2022/01/25 06:50:03;;;;;;;;;;;-12.80;91.10;;;;;;5057603;28;20346;-79
2022/01/25 06:52:31;;;;;;;;;;;-12.90;91.10;;;;;;5057080;28;19908;-80
2022/01/25 06:54:57;;;;;;;;;;;-12.90;91.10;;;;;;5057617;28;20676;-79
2022/01/25 06:57:26;;;;;;;;;;;-13.00;91.00;;;;;;5056728;28;19912;-80
2022/01/25 06:59:53;;;;;;;;;;;-13.00;91.10;;;;;;5057135;28;19916;-80
2022/01/25 07:02:20;;;;;;;;;;;-12.40;91.40;;;;;;5058224;28;19909;-79
2022/01/25 07:04:46;;;;;;;;;;;-12.90;91.30;;;;;;5056974;28;19909;-80
2022/01/25 07:07:11;;;;;;;;;;;-12.90;90.90;;;;;;5057243;28;19909;-80
2022/01/25 07:09:37;;;;;;;;;;;-12.90;91.10;;;;;;5058231;28;20434;-80
2022/01/25 07:12:03;;;;;;;;;;;-12.80;90.90;;;;;;5065327;28;20442;-80
2022/01/25 07:14:31;;;;;;;;;;;-11.50;91.60;;;;;;5078492;28;19924;-79
2022/01/25 07:16:57;;;;;;;;;;;-12.60;91.10;;;;;;5070575;28;19955;-80
2022/01/25 07:19:26;;;;;;;;;;;-12.50;91.00;;;;;;5085482;28;20563;-79
2022/01/25 07:21:51;;;;;;;;;;;-12.40;91.40;;;;;;5061809;28;20022;-79
2022/01/25 07:24:18;;;;;;;;;;;-11.80;91.20;;;;;;5059579;28;20446;-80
2022/01/25 07:26:43;;;;;;;;;;;-12.10;91.00;;;;;;5065348;28;19908;-80
2022/01/25 07:29:09;;;;;;;;;;;-11.90;91.10;;;;;;5062672;28;20003;-79
2022/01/25 07:31:35;;;;;;;;;;;-11.70;90.50;;;;;;5044499;28;19908;-80
2022/01/25 07:34:00;;;;;;;;;;;-8.90;91.20;;;;;;5062106;28;20418;-80
2022/01/25 07:36:28;;;;;;;;;;;-11.40;89.60;;;;;;5062216;28;19943;-80
2022/01/25 07:38:54;;;;;;;;;;;-11.30;88.90;;;;;;5061547;28;20105;-79
2022/01/25 07:41:21;;;;;;;;;;;-11.20;89.00;;;;;;5043514;28;19916;-79
2022/01/25 07:43:46;;;;;;;;;;;-11.00;88.20;;;;;;5061098;28;20243;-79
2022/01/25 07:46:15;;;;;;;;;;;-11.00;87.50;;;;;;5061475;28;19908;-79
2022/01/25 07:48:43;;;;;;;;;;;-10.90;87.00;;;;;;5037558;28;20216;-79
2022/01/25 07:51:09;;;;;;;;;;;-10.70;87.50;;;;;;5037568;28;19909;-79
2022/01/25 07:53:37;;;;;;;;;;;-10.00;86.60;;;;;;5038105;28;19970;-80
2022/01/25 07:56:02;;;;;;;;;;;-10.40;84.60;;;;;;5037659;28;19955;-80
2022/01/25 07:58:31;;;;;;;;;;;-10.40;84.30;;;;;;5038278;28;20266;-79
2022/01/25 08:00:56;;;;;;;;;;;-11.10;84.10;;;;;;5038448;28;20257;-80
2022/01/25 08:03:22;;;;;;;;;;;-10.40;84.00;;;;;;5020343;28;19936;-80
2022/01/25 08:05:50;;;;;;;;;;;-10.40;84.80;;;;;;5037651;28;19955;-80
2022/01/25 08:08:16;;;;;;;;;;;-10.20;85.00;;;;;;5037758;28;20093;-80
2022/01/25 08:10:42;;;;;;;;;;;-10.00;85.20;;;;;;5039397;28;20192;-80
2022/01/25 08:13:08;;;;;;;;;;;-9.90;84.10;;;;;;5043461;28;19909;-80
2022/01/25 08:15:34;;;;;;;;;;;-9.70;84.30;;;;;;5025989;28;19928;-80
2022/01/25 08:18:00;;;;;;;;;;;-9.60;83.30;;;;;;5040529;28;20144;-79
2022/01/25 08:20:25;;;;;;;;;;;-9.10;83.20;;;;;;5056208;28;19939;-80
2022/01/25 08:22:51;;;;;;;;;;;-7.60;82.40;;;;;;5061340;28;19915;-80
2022/01/25 08:25:22;;;;;;;;;;;-9.20;80.10;;;;;;5042805;28;19912;-80
2022/01/25 08:27:48;;;;;;;;;;;-9.00;79.60;;;;;;5061033;28;19915;-80
2022/01/25 08:30:14;;;;;;;;;;;-8.90;79.30;;;;;;5042709;28;20011;-80
2022/01/25 08:32:40;;;;;;;;;;;-8.00;78.80;;;;;;5060420;28;19913;-80
2022/01/25 08:35:06;;;;;;;;;;;-8.90;78.40;;;;;;5042459;28;19924;-79
2022/01/25 08:37:32;;;;;;;;;;;-10.10;77.90;;;;;;5041357;28;19940;-80
2022/01/25 08:39:57;;;;;;;;;;;-8.80;79.10;;;;;;5060073;28;19908;-80
2022/01/25 08:42:23;;;;;;;;;;;-8.60;79.40;;;;;;5059921;28;19909;-80
2022/01/25 08:44:49;;;;;;;;;;;-8.50;79.20;;;;;;5041806;28;19939;-79
2022/01/25 08:47:14;;;;;;;;;;;-7.70;79.70;;;;;;5059838;28;19920;-80
2022/01/25 08:49:40;;;;;;;;;;;-8.10;79.50;;;;;;5060276;28;19916;-80
2022/01/25 08:52:06;;;;;;;;;;;-9.50;78.00;;;;;;5042324;28;19909;-79
2022/01/25 08:54:32;;;;;;;;;;;-7.70;78.40;;;;;;5059640;28;20398;-79
2022/01/25 08:56:58;;;;;;;;;;;-7.40;77.50;;;;;;5059964;28;19912;-79
2022/01/25 08:59:24;;;;;;;;;;;-7.20;74.80;;;;;;5059644;28;19993;-80
2022/01/25 09:01:49;;;;;;;;;;;-6.90;74.70;;;;;;5042448;28;20216;-80
2022/01/25 09:04:15;;;;;;;;;;;-6.60;72.60;;;;;;5041601;28;20553;-80
2022/01/25 09:06:43;;;;;;;;;;;-6.40;72.90;;;;;;5060012;28;20246;-79
2022/01/25 09:09:09;;;;;;;;;;;-6.10;73.70;;;;;;5041947;28;19916;-80
2022/01/25 09:11:36;;;;;;;;;;;-5.90;73.40;;;;;;5041790;28;19981;-80
2022/01/25 09:14:01;;;;;;;;;;;-5.60;71.40;;;;;;5040987;28;19924;-80
2022/01/25 09:16:27;;;;;;;;;;;-5.30;71.60;;;;;;5041603;28;19924;-80
2022/01/25 09:18:53;;;;;;;;;;;-5.00;70.80;;;;;;5041108;28;19954;-79
2022/01/25 09:21:18;;;;;;;;;;;-4.00;68.30;;;;;;5059688;28;19919;-79
2022/01/25 09:23:44;;;;;;;;;;;-4.50;69.20;;;;;;5059789;28;19999;-80
2022/01/25 09:26:09;;;;;;;;;;;-4.30;66.70;;;;;;5059938;28;20127;-80
2022/01/25 09:28:35;;;;;;;;;;;-4.20;64.70;;;;;;5059690;28;20291;-80
2022/01/25 09:31:01;;;;;;;;;;;-4.00;65.40;;;;;;5059487;28;19999;-80
2022/01/25 09:33:27;;;;;;;;;;;-3.80;64.00;;;;;;5041693;28;19912;-80
2022/01/25 09:35:57;;;;;;;;;;;-3.70;63.70;;;;;;5059020;28;19974;-80
2022/01/25 09:38:23;;;;;;;;;;;-2.40;65.70;;;;;;5041601;28;20385;-80
2022/01/25 09:40:49;;;;;;;;;;;-3.50;63.70;;;;;;5059246;28;20323;-80
2022/01/25 09:43:15;;;;;;;;;;;-3.50;63.20;;;;;;5059624;28;19909;-80
2022/01/25 09:45:40;;;;;;;;;;;-3.40;62.80;;;;;;5041762;28;19912;-80
2022/01/25 09:48:08;;;;;;;;;;;-3.20;61.60;;;;;;5058830;28;20234;-80
2022/01/25 09:50:34;;;;;;;;;;;-3.30;60.20;;;;;;5059932;28;20154;-81
2022/01/25 09:53:00;;;;;;;;;;;-1.90;59.90;;;;;;5049543;28;19920;-80
2022/01/25 09:55:29;;;;;;;;;;;-3.10;59.10;;;;;;5078721;28;19916;-80
2022/01/25 09:57:55;;;;;;;;;;;-3.00;60.00;;;;;;5079283;28;19955;-80
2022/01/25 10:00:22;;;;;;;;;;;-2.80;60.50;;;;;;5080966;28;19908;-79
2022/01/25 10:05:43;;;;;;;;;;;-2.70;59.10;;;;;;5039388;28;19920;-80
2022/01/25 10:08:16;;;;;;;;;;;-2.60;57.90;;;;;;5037852;28;19970;-80
2022/01/25 10:10:41;;;;;;;;;;;-2.40;57.00;;;;;;5037634;28;19938;-80
2022/01/25 10:13:07;;;;;;;;;;;-2.20;56.50;;;;;;5019792;28;20032;-80
2022/01/25 10:15:33;;;;;;;;;;;-2.20;55.60;;;;;;5036335;28;20124;-80
2022/01/25 10:17:59;;;;;;;;;;;-2.50;55.50;;;;;;5036352;28;21288;-80
2022/01/25 10:20:34;;;;;;;;;;;-2.40;56.40;;;;;;5036521;28;19966;-79
2022/01/25 10:23:02;;;;;;;;;;;-2.20;55.90;;;;;;5036336;28;19909;-79
2022/01/25 10:25:35;;;;;;;;;;;-2.10;55.70;;;;;;5035813;28;20431;-80
2022/01/25 10:28:10;;;;;;;;;;;-2.20;55.80;;;;;;5036407;28;20444;-79
2022/01/25 10:30:39;;;;;;;;;;;-1.20;56.00;;;;;;5036627;28;19913;-79
2022/01/25 10:33:16;;;;;;;;;;;-1.90;55.30;;;;;;5038433;28;19954;-80
2022/01/25 10:35:41;;;;;;;;;;;0.00;55.70;;;;;;5041777;28;19917;-79
2022/01/25 10:38:19;;;;;;;;;;;-1.50;54.50;;;;;;5039090;28;19912;-80
2022/01/25 10:40:52;;;;;;;;;;;-1.30;53.50;;;;;;5037837;28;20192;-80
2022/01/25 10:43:20;;;;;;;;;;;-0.80;54.30;;;;;;5040822;28;19917;-79
2022/01/25 10:45:45;;;;;;;;;;;-0.90;54.30;;;;;;5041023;28;19912;-79
2022/01/25 10:48:14;;;;;;;;;;;-1.40;53.50;;;;;;5059303;28;20031;-79
2022/01/25 10:50:42;;;;;;;;;;;-0.70;53.40;;;;;;5040781;28;19912;-80
2022/01/25 10:53:11;;;;;;;;;;;-0.90;52.90;;;;;;5059136;28;19912;-79
2022/01/25 10:55:56;;;;;;;;;;;-0.80;53.70;;;;;;5058832;28;19916;-79
2022/01/25 10:58:23;;;;;;;;;;;-0.60;52.30;;;;;;5058416;28;20054;-80
2022/01/25 11:00:51;;;;;;;;;;;-0.30;52.50;;;;;;5060341;28;19983;-79
2022/01/25 11:03:29;;;;;;;;;;;-0.30;51.20;;;;;;5062690;28;20248;-79
2022/01/25 11:06:07;;;;;;;;;;;-0.40;52.20;;;;;;5062360;28;20386;-80
2022/01/25 11:08:35;;;;;;;;;;;0.90;52.50;;;;;;5062673;28;19919;-80
2022/01/25 11:11:03;;;;;;;;;;;0.50;52.00;;;;;;5044623;28;19908;-79
2022/01/25 11:15:58;;;;;;;;;;;0.00;50.70;;;;;;5062291;28;19917;-79
2022/01/25 11:18:26;;;;;;;;;;;0.40;50.60;;;;;;5061507;28;19908;-79
2022/01/25 11:20:52;;;;;;;;;;;0.20;51.60;;;;;;5043872;28;19915;-79
2022/01/25 11:23:18;;;;;;;;;;;0.70;49.50;;;;;;5043975;28;20049;-79
2022/01/25 11:25:45;;;;;;;;;;;0.00;49.60;;;;;;5062296;28;19915;-77
2022/01/25 11:28:11;;;;;;;;;;;0.20;50.10;;;;;;5043938;28;19912;-80
2022/01/25 11:30:40;;;;;;;;;;;0.30;48.90;;;;;;5062543;28;19912;-79
2022/01/25 11:33:07;;;;;;;;;;;0.60;51.00;;;;;;5044491;28;19909;-80
2022/01/25 11:35:33;;;;;;;;;;;1.00;49.70;;;;;;5044031;28;19947;-79
2022/01/25 11:37:58;;;;;;;;;;;0.40;48.10;;;;;;5043974;28;19947;-80
2022/01/25 11:40:24;;;;;;;;;;;0.40;48.00;;;;;;5061737;28;20121;-79
2022/01/25 11:42:51;;;;;;;;;;;0.50;49.20;;;;;;5062118;28;19915;-79
2022/01/25 11:45:19;;;;;;;;;;;0.80;51.50;;;;;;5061560;28;19916;-79
2022/01/25 11:47:48;;;;;;;;;;;0.90;50.90;;;;;;5061537;28;19995;-80
2022/01/25 11:50:15;;;;;;;;;;;1.00;49.50;;;;;;5061758;28;20019;-80
2022/01/25 11:52:49;;;;;;;;;;;1.20;48.20;;;;;;5043832;28;19999;-79
2022/01/25 11:55:32;;;;;;;;;;;1.40;48.50;;;;;;5061938;28;20170;-80
2022/01/25 11:58:07;;;;;;;;;;;1.40;47.30;;;;;;5061728;28;19908;-80
2022/01/25 12:00:50;;;;;;;;;;;1.50;45.40;;;;;;5061648;28;20223;-79
2022/01/25 12:03:34;;;;;;;;;;;1.60;45.90;;;;;;5061782;28;19947;-80
2022/01/25 12:06:02;;;;;;;;;;;1.70;46.10;;;;;;5043792;28;19973;-79
2022/01/25 12:08:38;;;;;;;;;;;1.80;44.60;;;;;;5043549;28;20310;-80
2022/01/25 12:11:22;;;;;;;;;;;1.80;43.70;;;;;;5043729;28;19931;-78
2022/01/25 12:14:09;;;;;;;;;;;1.80;43.10;;;;;;5043382;28;19974;-79
2022/01/25 12:16:44;;;;;;;;;;;1.90;43.60;;;;;;5061816;28;19947;-79
2022/01/25 12:19:17;;;;;;;;;;;2.00;43.90;;;;;;5061730;28;20061;-79
2022/01/25 12:21:54;;;;;;;;;;;2.70;43.20;;;;;;5061091;28;19991;-79
2022/01/25 12:24:29;;;;;;;;;;;1.90;42.70;;;;;;5043358;28;20192;-79
2022/01/25 12:27:01;;;;;;;;;;;2.00;42.70;;;;;;5061454;28;19979;-79
2022/01/25 12:29:37;;;;;;;;;;;2.00;42.50;;;;;;5061602;28;20573;-79
2022/01/25 12:32:15;;;;;;;;;;;2.00;42.50;;;;;;5061456;28;20021;-79
2022/01/25 12:34:59;;;;;;;;;;;2.30;42.40;;;;;;5066352;28;19920;-79
2022/01/25 12:37:55;;;;;;;;;;;2.10;41.60;;;;;;5058790;28;20577;-79
2022/01/25 12:40:28;;;;;;;;;;;2.20;42.00;;;;;;5059581;28;19920;-79
2022/01/25 12:42:57;;;;;;;;;;;2.00;42.30;;;;;;5075807;28;20274;-80
2022/01/25 12:45:24;;;;;;;;;;;1.90;42.40;;;;;;5066498;28;20547;-79
2022/01/25 12:47:51;;;;;;;;;;;1.90;41.90;;;;;;5065551;28;19999;-79
2022/01/25 12:50:19;;;;;;;;;;;1.80;41.40;;;;;;5063628;28;20361;-79
2022/01/25 12:52:45;;;;;;;;;;;2.00;42.50;;;;;;5067433;28;19912;-80
2022/01/25 12:55:13;;;;;;;;;;;2.00;42.20;;;;;;5065936;28;19929;-79
2022/01/25 12:57:46;;;;;;;;;;;2.20;42.60;;;;;;5045520;28;19909;-79
2022/01/25 13:00:12;;;;;;;;;;;1.30;41.50;;;;;;5044355;28;19908;-79
2022/01/25 13:02:41;;;;;;;;;;;2.20;42.00;;;;;;5061070;28;20003;-79
2022/01/25 13:05:20;;;;;;;;;;;2.10;41.50;;;;;;5061086;28;20184;-79
2022/01/25 13:07:46;;;;;;;;;;;2.10;42.60;;;;;;5042246;28;19916;-79
2022/01/25 13:10:25;;;;;;;;;;;2.50;42.30;;;;;;5060620;28;19919;-78
2022/01/25 13:12:59;;;;;;;;;;;2.50;40.80;;;;;;5042659;28;19912;-79
2022/01/25 13:15:38;;;;;;;;;;;2.40;41.10;;;;;;5059950;28;20208;-79
2022/01/25 13:18:08;;;;;;;;;;;2.20;42.40;;;;;;5042457;28;19953;-79
2022/01/25 13:20:33;;;;;;;;;;;2.50;42.40;;;;;;5042308;28;19970;-79
2022/01/25 13:23:02;;;;;;;;;;;2.60;42.50;;;;;;5042112;28;19908;-79
2022/01/25 13:25:33;;;;;;;;;;;2.60;41.50;;;;;;5042082;28;20331;-79
2022/01/25 13:28:13;;;;;;;;;;;2.40;42.20;;;;;;5060685;28;19909;-79
2022/01/25 13:30:45;;;;;;;;;;;2.70;42.20;;;;;;5042182;28;19946;-79
2022/01/25 13:33:12;;;;;;;;;;;2.80;42.00;;;;;;5042337;28;19908;-80
2022/01/25 13:35:41;;;;;;;;;;;2.90;42.60;;;;;;5060838;28;20444;-80
2022/01/25 13:38:09;;;;;;;;;;;2.90;41.80;;;;;;5042208;28;20236;-79
2022/01/25 13:40:56;;;;;;;;;;;2.90;41.10;;;;;;5059855;28;19957;-80
2022/01/25 13:45:56;;;;;;;;;;;3.10;41.20;;;;;;5060465;28;20338;-80
2022/01/25 13:48:26;;;;;;;;;;;3.10;41.50;;;;;;5042662;28;19956;-80
2022/01/25 13:50:52;;;;;;;;;;;3.20;42.10;;;;;;5043136;28;19920;-80
2022/01/25 13:53:18;;;;;;;;;;;3.40;41.90;;;;;;5042463;28;20120;-79
2022/01/25 13:55:48;;;;;;;;;;;3.50;42.70;;;;;;5060472;28;19916;-80
2022/01/25 13:58:19;;;;;;;;;;;3.20;41.30;;;;;;5060126;28;20012;-80
2022/01/25 14:00:44;;;;;;;;;;;2.90;43.00;;;;;;5042333;28;20011;-79
2022/01/25 14:03:10;;;;;;;;;;;2.90;42.80;;;;;;5060173;28;19908;-80
2022/01/25 14:05:37;;;;;;;;;;;3.30;42.80;;;;;;5041816;28;20200;-80
2022/01/25 14:08:02;;;;;;;;;;;3.40;43.40;;;;;;5041729;28;20410;-80
2022/01/25 14:10:29;;;;;;;;;;;3.60;42.60;;;;;;5042161;28;19909;-80
2022/01/25 14:23:54;;;;;;;;;;;3.70;40.00;;;;;;5060918;28;19919;-80
2022/01/25 14:26:20;;;;;;;;;;;3.80;40.70;;;;;;5061861;28;19912;-79
2022/01/25 14:29:05;;;;;;;;;;;3.90;40.40;;;;;;5044004;28;19915;-80
2022/01/25 14:31:30;;;;;;;;;;;3.90;40.80;;;;;;5044108;28;19909;-80
2022/01/25 14:33:57;;;;;;;;;;;4.20;40.90;;;;;;5044711;28;20110;-80
2022/01/25 14:36:24;;;;;;;;;;;4.30;41.00;;;;;;5067329;28;19920;-80
2022/01/25 14:38:52;;;;;;;;;;;4.30;40.80;;;;;;5066186;28;20027;-80
2022/01/25 14:41:19;;;;;;;;;;;4.40;40.80;;;;;;5050468;28;19912;-80
2022/01/25 14:43:56;;;;;;;;;;;4.30;39.20;;;;;;5051656;28;19927;-80
2022/01/25 14:46:25;;;;;;;;;;;4.20;38.90;;;;;;5055748;28;19912;-81
2022/01/25 14:49:13;;;;;;;;;;;4.00;40.40;;;;;;5054082;28;20415;-82
2022/01/25 14:51:42;;;;;;;;;;;4.00;40.40;;;;;;5072218;28;19919;-79
2022/01/25 14:54:08;;;;;;;;;;;4.20;40.20;;;;;;5067575;28;19920;-80
2022/01/25 14:56:36;;;;;;;;;;;4.10;40.60;;;;;;5071070;28;19909;-80
2022/01/25 14:59:24;;;;;;;;;;;4.20;40.80;;;;;;5066562;28;19916;-81
2022/01/25 15:01:51;;;;;;;;;;;4.00;39.80;;;;;;5048404;28;20429;-80
2022/01/25 15:04:16;;;;;;;;;;;3.80;41.10;;;;;;5050525;28;20037;-80
2022/01/25 15:06:42;;;;;;;;;;;3.50;41.00;;;;;;5048344;28;20430;-80
2022/01/25 15:09:08;;;;;;;;;;;3.20;41.80;;;;;;5048367;28;20407;-81
2022/01/25 15:11:34;;;;;;;;;;;3.40;42.60;;;;;;5073123;28;19908;-80
2022/01/25 15:14:08;;;;;;;;;;;2.60;43.20;;;;;;5051072;28;20379;-81
2022/01/25 15:16:33;;;;;;;;;;;2.20;44.00;;;;;;5048101;28;19962;-80
2022/01/25 15:18:59;;;;;;;;;;;2.00;44.50;;;;;;5064907;28;19920;-79
2022/01/25 15:21:24;;;;;;;;;;;1.50;45.40;;;;;;5056544;28;19919;-79
2022/01/25 15:23:50;;;;;;;;;;;1.10;46.20;;;;;;5080134;28;19909;-79
2022/01/25 15:26:18;;;;;;;;;;;0.90;47.10;;;;;;5064535;28;20474;-79
2022/01/25 15:28:47;;;;;;;;;;;0.60;49.30;;;;;;5061344;28;19908;-79
2022/01/25 15:31:14;;;;;;;;;;;0.30;50.60;;;;;;5049408;28;20033;-78
2022/01/25 15:33:41;;;;;;;;;;;0.10;53.20;;;;;;5048324;28;19909;-79
2022/01/25 15:36:07;;;;;;;;;;;-0.10;54.50;;;;;;5063982;28;19934;-78
2022/01/25 15:38:33;;;;;;;;;;;-0.40;55.80;;;;;;5045386;28;20000;-79
2022/01/25 15:41:00;;;;;;;;;;;0.10;56.50;;;;;;5044223;28;19970;-78
2022/01/25 15:43:30;;;;;;;;;;;0.40;58.70;;;;;;5062027;28;20021;-78
2022/01/25 15:46:07;;;;;;;;;;;-0.90;59.30;;;;;;5044118;28;19962;-79
2022/01/25 15:48:33;;;;;;;;;;;-1.20;61.10;;;;;;5062295;28;19908;-78
2022/01/25 15:50:59;;;;;;;;;;;-1.30;63.80;;;;;;5062079;28;19927;-78
2022/01/25 15:53:25;;;;;;;;;;;-1.40;65.10;;;;;;5062271;28;20276;-79
2022/01/25 15:55:50;;;;;;;;;;;-1.80;64.90;;;;;;5061901;28;19917;-79
2022/01/25 15:58:16;;;;;;;;;;;-1.70;65.50;;;;;;5044398;28;19908;-78
2022/01/25 16:00:47;;;;;;;;;;;0.10;68.60;;;;;;5061995;28;20291;-78
2022/01/25 16:03:14;;;;;;;;;;;-2.00;69.50;;;;;;5044010;28;19908;-78
2022/01/25 16:05:40;;;;;;;;;;;-3.00;68.90;;;;;;5043314;28;20268;-78
2022/01/25 16:08:06;;;;;;;;;;;-0.40;70.90;;;;;;5061135;28;19974;-78
2022/01/25 16:10:34;;;;;;;;;;;-2.30;69.90;;;;;;5061589;28;20193;-80
2022/01/25 16:12:59;;;;;;;;;;;-2.50;71.10;;;;;;5043652;28;19948;-79
2022/01/25 16:15:25;;;;;;;;;;;-2.60;72.10;;;;;;5043299;28;20259;-78
2022/01/25 16:17:51;;;;;;;;;;;-2.70;72.20;;;;;;5043954;28;19908;-79
2022/01/25 16:20:17;;;;;;;;;;;-2.70;73.90;;;;;;5043863;28;20369;-78
2022/01/25 16:22:45;;;;;;;;;;;-0.40;75.80;;;;;;5061475;28;20441;-78
2022/01/25 16:25:11;;;;;;;;;;;-2.80;76.50;;;;;;5061085;28;20311;-79
2022/01/25 16:27:37;;;;;;;;;;;-2.80;77.40;;;;;;5043249;28;19919;-79
2022/01/25 16:30:04;;;;;;;;;;;-2.90;77.10;;;;;;5043587;28;20011;-78
2022/01/25 16:32:34;;;;;;;;;;;-2.90;77.10;;;;;;5043395;28;19915;-78
2022/01/25 16:35:00;;;;;;;;;;;-3.00;77.10;;;;;;5060915;28;19959;-78
2022/01/25 16:37:26;;;;;;;;;;;-3.00;77.60;;;;;;5043054;28;19908;-78